createdAt,value
2018-09-11T00:01:02.952Z,99.90
2018-09-11T00:03:31.149Z,99.90
2018-09-11T00:05:59.346Z,99.90
2018-09-11T00:08:27.563Z,99.90
2018-09-11T00:10:55.762Z,99.90
2018-09-11T00:13:23.963Z,99.90
2018-09-11T00:15:53.659Z,99.90
2018-09-11T00:18:21.840Z,99.90
2018-09-11T00:20:50.024Z,99.90
2018-09-11T00:23:18.226Z,99.90
2018-09-11T00:25:46.402Z,99.90
2018-09-11T00:28:14.583Z,99.90
2018-09-11T00:30:42.787Z,99.90
2018-09-11T00:33:10.991Z,99.90
2018-09-11T00:35:39.228Z,99.90
2018-09-11T00:38:07.692Z,99.90
2018-09-11T00:40:35.878Z,99.90
2018-09-11T00:45:55.514Z,99.90
2018-09-11T00:48:23.736Z,99.90
2018-09-11T00:50:51.935Z,99.90
2018-09-11T00:53:20.154Z,99.90
2018-09-11T00:55:48.776Z,99.90
2018-09-11T00:58:16.995Z,99.90
2018-09-11T01:00:45.192Z,99.90
2018-09-11T01:03:13.388Z,99.90
2018-09-11T01:05:41.591Z,99.90
2018-09-11T01:08:09.814Z,99.90
2018-09-11T01:10:38.048Z,99.90
2018-09-11T01:13:06.290Z,99.90
2018-09-11T01:15:34.495Z,99.90
2018-09-11T01:18:02.705Z,99.90
2018-09-11T01:20:30.918Z,99.90
2018-09-11T01:22:59.098Z,99.90
2018-09-11T01:25:27.282Z,99.90
2018-09-11T01:27:55.471Z,99.90
2018-09-11T01:30:23.978Z,99.90
2018-09-11T01:32:52.557Z,99.90
2018-09-11T01:35:21.508Z,99.90
2018-09-11T01:37:49.737Z,99.90
2018-09-11T01:40:17.982Z,99.90
2018-09-11T01:42:46.176Z,99.90
2018-09-11T01:45:14.363Z,99.90
2018-09-11T01:47:42.561Z,99.90
2018-09-11T01:50:10.764Z,99.90
2018-09-11T01:52:38.912Z,99.90
2018-09-11T01:55:07.091Z,99.90
2018-09-11T01:57:35.260Z,99.90
2018-09-11T02:00:03.434Z,99.90
2018-09-11T02:02:31.666Z,99.90
2018-09-11T02:04:59.869Z,99.90
2018-09-11T02:07:28.065Z,99.90
2018-09-11T02:09:56.254Z,99.90
2018-09-11T02:12:24.461Z,99.90
2018-09-11T02:14:52.677Z,99.90
2018-09-11T02:17:20.871Z,99.90
2018-09-11T02:19:49.093Z,99.90
2018-09-11T02:22:17.336Z,99.90
2018-09-11T02:24:45.561Z,99.90
2018-09-11T02:27:13.768Z,99.90
2018-09-11T02:29:42.042Z,99.90
2018-09-11T02:32:10.276Z,99.90
2018-09-11T02:34:38.435Z,99.90
2018-09-11T02:37:06.655Z,99.90
2018-09-11T02:39:34.882Z,99.90
2018-09-11T02:42:03.113Z,99.90
2018-09-11T02:44:31.307Z,99.90
2018-09-11T02:46:59.499Z,99.90
2018-09-11T02:49:27.698Z,99.90
2018-09-11T02:51:55.898Z,99.90
2018-09-11T02:54:24.114Z,99.90
2018-09-11T02:56:52.332Z,99.90
2018-09-11T02:59:20.512Z,99.90
2018-09-11T03:01:48.729Z,99.90
2018-09-11T03:04:16.927Z,99.90
2018-09-11T03:06:45.123Z,99.90
2018-09-11T03:09:13.323Z,99.90
2018-09-11T03:11:41.566Z,99.90
2018-09-11T03:14:09.756Z,99.90
2018-09-11T03:16:37.958Z,99.90
2018-09-11T03:19:06.368Z,99.90
2018-09-11T03:21:34.736Z,99.90
2018-09-11T03:24:02.957Z,99.90
2018-09-11T03:26:31.163Z,99.90
2018-09-11T03:28:59.995Z,99.90
2018-09-11T03:31:28.230Z,99.90
2018-09-11T03:33:56.435Z,99.90
2018-09-11T03:36:24.671Z,99.90
2018-09-11T03:38:52.835Z,99.90
2018-09-11T03:41:21.045Z,99.90
2018-09-11T03:43:49.234Z,99.90
2018-09-11T03:46:17.433Z,99.90
2018-09-11T03:48:45.637Z,99.90
2018-09-11T03:51:13.842Z,99.90
2018-09-11T03:53:42.047Z,99.90
2018-09-11T03:56:10.277Z,99.90
2018-09-11T03:58:38.507Z,99.90
2018-09-11T04:01:06.775Z,99.90
2018-09-11T04:03:34.995Z,99.90
2018-09-11T04:06:03.206Z,99.90
2018-09-11T04:08:31.441Z,99.90
2018-09-11T04:10:59.646Z,99.90
2018-09-11T04:13:27.861Z,99.90
2018-09-11T04:15:56.243Z,99.90
2018-09-11T04:18:24.461Z,99.90
2018-09-11T04:20:52.655Z,99.90
2018-09-11T04:23:20.849Z,99.90
2018-09-11T04:25:49.110Z,99.90
2018-09-11T04:28:17.328Z,99.90
2018-09-11T04:30:45.488Z,99.90
2018-09-11T04:33:13.697Z,99.90
2018-09-11T04:35:42.081Z,99.90
2018-09-11T04:38:10.302Z,99.90
2018-09-11T04:40:38.511Z,99.90
2018-09-11T04:43:06.772Z,99.90
2018-09-11T04:45:34.990Z,99.90
2018-09-11T04:48:03.401Z,99.90
2018-09-11T04:50:31.611Z,99.90
2018-09-11T04:52:59.770Z,99.90
2018-09-11T04:55:27.976Z,99.90
2018-09-11T04:57:56.212Z,99.90
2018-09-11T05:00:24.470Z,99.90
2018-09-11T05:02:52.675Z,99.90
2018-09-11T05:05:20.878Z,99.90
2018-09-11T05:07:49.126Z,99.90
2018-09-11T05:10:17.313Z,99.90
2018-09-11T05:12:45.507Z,99.90
2018-09-11T05:15:13.729Z,99.90
2018-09-11T05:17:42.179Z,99.90
2018-09-11T05:20:10.386Z,99.90
2018-09-11T05:22:38.590Z,99.90
2018-09-11T05:25:06.768Z,99.90
2018-09-11T05:27:35.004Z,99.90
2018-09-11T05:30:03.178Z,99.90
2018-09-11T05:32:31.377Z,99.90
2018-09-11T05:34:59.551Z,99.90
2018-09-11T05:37:27.766Z,99.90
2018-09-11T05:39:55.935Z,99.90
2018-09-11T05:42:24.181Z,99.90
2018-09-11T05:44:52.353Z,99.90
2018-09-11T05:47:20.524Z,99.90
2018-09-11T05:49:49.732Z,99.90
2018-09-11T05:52:18.955Z,99.90
2018-09-11T05:54:47.213Z,99.90
2018-09-11T05:57:15.414Z,99.90
2018-09-11T05:59:43.573Z,99.90
2018-09-11T06:02:11.819Z,99.90
2018-09-11T06:04:40.015Z,99.90
2018-09-11T06:07:08.195Z,99.90
2018-09-11T06:09:36.457Z,99.90
2018-09-11T06:12:04.652Z,99.90
2018-09-11T06:14:32.861Z,99.90
2018-09-11T06:17:01.109Z,99.90
2018-09-11T06:19:29.301Z,99.90
2018-09-11T06:21:57.459Z,99.90
2018-09-11T06:24:25.696Z,99.90
2018-09-11T06:26:53.883Z,99.90
2018-09-11T06:29:22.110Z,99.90
2018-09-11T06:31:50.318Z,99.90
2018-09-11T06:34:18.535Z,99.90
2018-09-11T06:36:46.725Z,99.90
2018-09-11T06:39:14.973Z,99.90
2018-09-11T06:41:43.167Z,99.90
2018-09-11T06:44:11.383Z,99.90
2018-09-11T06:46:39.561Z,99.90
2018-09-11T06:49:07.786Z,99.90
2018-09-11T06:51:35.973Z,99.90
2018-09-11T06:54:04.188Z,99.90
2018-09-11T06:56:32.396Z,99.90
2018-09-11T06:59:00.654Z,99.90
2018-09-11T07:01:28.840Z,99.90
2018-09-11T07:03:57.045Z,99.90
2018-09-11T07:06:25.289Z,99.90
2018-09-11T07:08:53.476Z,99.90
2018-09-11T07:11:21.710Z,99.90
2018-09-11T07:13:49.900Z,99.90
2018-09-11T07:16:18.092Z,99.90
2018-09-11T07:18:46.307Z,99.90
2018-09-11T07:21:14.537Z,99.90
2018-09-11T07:23:42.744Z,99.90
2018-09-11T07:26:11.006Z,99.90
2018-09-11T07:28:39.175Z,99.90
2018-09-11T07:31:07.598Z,99.90
2018-09-11T07:33:35.787Z,99.90
2018-09-11T07:36:04.051Z,99.90
2018-09-11T07:38:32.239Z,99.90
2018-09-11T07:41:00.477Z,99.90
2018-09-11T07:43:28.703Z,99.90
2018-09-11T07:45:56.938Z,99.90
2018-09-11T07:48:25.169Z,99.90
2018-09-11T07:50:53.357Z,99.90
2018-09-11T07:53:21.567Z,99.90
2018-09-11T07:55:49.970Z,99.90
2018-09-11T07:58:18.179Z,99.90
2018-09-11T08:00:46.385Z,99.90
2018-09-11T08:03:14.569Z,99.90
2018-09-11T08:05:42.869Z,99.90
2018-09-11T08:08:11.077Z,99.90
2018-09-11T08:10:39.259Z,99.90
2018-09-11T08:13:07.443Z,99.90
2018-09-11T08:15:35.644Z,99.90
2018-09-11T08:18:03.843Z,99.90
2018-09-11T08:20:32.041Z,99.90
2018-09-11T08:23:00.238Z,99.90
2018-09-11T08:25:28.477Z,99.90
2018-09-11T08:27:56.710Z,99.90
2018-09-11T08:30:24.898Z,99.90
2018-09-11T08:32:53.145Z,99.90
2018-09-11T08:35:21.427Z,99.90
2018-09-11T08:37:49.626Z,99.90
2018-09-11T08:40:17.821Z,99.90
2018-09-11T08:42:46.015Z,99.90
2018-09-11T08:45:14.230Z,99.90
2018-09-11T08:47:42.420Z,99.90
2018-09-11T08:50:10.595Z,99.90
2018-09-11T08:52:38.857Z,99.90
2018-09-11T08:55:07.073Z,99.90
2018-09-11T08:57:35.275Z,99.90
2018-09-11T09:00:03.456Z,99.90
2018-09-11T09:02:31.657Z,99.90
2018-09-11T09:04:59.874Z,99.90
2018-09-11T09:07:28.067Z,99.90
2018-09-11T09:09:56.280Z,99.90
2018-09-11T09:12:24.421Z,99.90
2018-09-11T09:14:52.609Z,99.90
2018-09-11T09:17:20.829Z,99.90
2018-09-11T09:19:49.038Z,99.90
2018-09-11T09:22:17.232Z,99.90
2018-09-11T09:24:45.409Z,99.90
2018-09-11T09:27:13.655Z,99.90
2018-09-11T09:29:41.792Z,99.90
2018-09-11T09:32:09.992Z,99.90
2018-09-11T09:34:38.162Z,99.90
2018-09-11T09:37:06.392Z,99.90
2018-09-11T09:39:34.531Z,99.90
2018-09-11T09:42:02.704Z,99.90
2018-09-11T09:44:30.898Z,99.90
2018-09-11T09:46:59.120Z,99.90
2018-09-11T09:49:27.297Z,99.90
2018-09-11T09:51:55.461Z,99.90
2018-09-11T09:54:23.640Z,99.90
2018-09-11T09:56:51.857Z,99.90
2018-09-11T09:59:20.040Z,99.90
2018-09-11T10:01:53.651Z,99.90
2018-09-11T10:04:21.849Z,99.90
2018-09-11T10:06:50.036Z,99.90
2018-09-11T10:09:18.199Z,99.90
2018-09-11T10:11:46.415Z,99.90
2018-09-11T10:14:14.523Z,99.90
2018-09-11T10:16:42.695Z,99.90
2018-09-11T10:19:10.917Z,99.90
2018-09-11T10:21:39.100Z,99.90
2018-09-11T10:24:07.255Z,99.90
2018-09-11T10:26:35.430Z,99.90
2018-09-11T10:29:03.635Z,99.90
2018-09-11T10:31:31.798Z,99.90
2018-09-11T10:33:59.988Z,99.90
2018-09-11T10:36:28.161Z,99.90
2018-09-11T10:38:56.377Z,99.90
2018-09-11T10:41:24.503Z,99.90
2018-09-11T10:43:52.846Z,99.90
2018-09-11T10:46:21.022Z,99.90
2018-09-11T10:48:49.238Z,99.90
2018-09-11T10:51:17.433Z,99.90
2018-09-11T10:53:45.590Z,99.90
2018-09-11T10:56:13.766Z,99.90
2018-09-11T10:58:41.952Z,99.90
2018-09-11T11:01:10.142Z,99.90
2018-09-11T11:03:38.308Z,99.90
2018-09-11T11:06:06.485Z,99.90
2018-09-11T11:08:34.662Z,99.90
2018-09-11T11:11:02.834Z,99.90
2018-09-11T11:13:31.019Z,99.90
2018-09-11T11:15:59.204Z,99.90
2018-09-11T11:18:27.383Z,99.90
2018-09-11T11:20:55.563Z,99.90
2018-09-11T11:23:23.773Z,99.90
2018-09-11T11:25:51.935Z,99.90
2018-09-11T11:28:20.129Z,99.90
2018-09-11T11:30:48.333Z,99.90
2018-09-11T11:33:16.517Z,99.90
2018-09-11T11:35:44.017Z,99.90
2018-09-11T11:38:12.213Z,99.90
2018-09-11T11:40:40.383Z,99.90
2018-09-11T11:43:08.560Z,99.90
2018-09-11T11:45:36.730Z,99.90
2018-09-11T11:48:04.991Z,99.90
2018-09-11T11:50:33.180Z,99.90
2018-09-11T11:53:01.393Z,99.90
2018-09-11T11:55:29.678Z,99.90
2018-09-11T11:57:59.408Z,99.90
2018-09-11T12:00:27.613Z,99.90
2018-09-11T12:02:55.795Z,99.90
2018-09-11T12:05:24.105Z,99.90
2018-09-11T12:07:52.294Z,99.90
2018-09-11T12:10:20.449Z,99.90
2018-09-11T12:12:48.669Z,98.00
2018-09-11T12:15:16.854Z,97.20
2018-09-11T12:17:45.122Z,97.20
2018-09-11T12:20:13.339Z,96.60
2018-09-11T12:22:41.693Z,96.10
2018-09-11T12:25:09.981Z,96.50
2018-09-11T12:27:38.122Z,96.60
2018-09-11T12:30:06.441Z,96.20
2018-09-11T12:32:34.654Z,95.70
2018-09-11T12:35:02.913Z,95.80
2018-09-11T12:37:31.078Z,93.80
2018-09-11T12:39:59.267Z,93.60
2018-09-11T12:42:27.444Z,93.30
2018-09-11T12:44:55.633Z,93.00
2018-09-11T12:47:24.196Z,93.60
2018-09-11T12:49:52.023Z,92.80
2018-09-11T12:52:20.212Z,92.40
2018-09-11T12:54:48.380Z,91.50
2018-09-11T12:57:16.574Z,90.20
2018-09-11T12:59:44.738Z,90.10
2018-09-11T13:02:12.933Z,90.50
2018-09-11T13:04:41.100Z,89.50
2018-09-11T13:07:09.302Z,88.10
2018-09-11T13:09:37.654Z,88.90
2018-09-11T13:12:05.675Z,88.80
2018-09-11T13:14:33.939Z,88.90
2018-09-11T13:17:02.127Z,87.60
2018-09-11T13:19:30.332Z,86.30
2018-09-11T13:21:58.487Z,85.90
2018-09-11T13:24:27.523Z,84.90
2018-09-11T13:26:55.714Z,82.10
2018-09-11T13:29:23.895Z,81.00
2018-09-11T13:31:52.104Z,80.10
2018-09-11T13:34:20.324Z,79.30
2018-09-11T13:36:48.542Z,80.20
2018-09-11T13:39:16.743Z,80.20
2018-09-11T13:41:44.933Z,79.90
2018-09-11T13:44:13.139Z,77.70
2018-09-11T13:46:41.292Z,78.10
2018-09-11T13:49:09.491Z,78.30
2018-09-11T13:51:37.651Z,77.90
2018-09-11T13:54:05.888Z,76.80
2018-09-11T13:56:34.146Z,76.40
2018-09-11T13:59:06.465Z,77.50
2018-09-11T14:01:34.594Z,75.10
2018-09-11T14:04:03.102Z,74.30
2018-09-11T14:06:31.291Z,74.60
2018-09-11T14:08:59.503Z,75.10
2018-09-11T14:11:27.711Z,74.60
2018-09-11T14:13:55.883Z,74.60
2018-09-11T14:16:24.087Z,73.80
2018-09-11T14:18:52.272Z,74.10
2018-09-11T14:21:20.443Z,73.10
2018-09-11T14:23:48.608Z,73.30
2018-09-11T14:26:16.140Z,72.50
2018-09-11T14:28:43.662Z,71.20
2018-09-11T14:31:11.890Z,71.40
2018-09-11T14:33:40.073Z,69.50
2018-09-11T14:36:08.256Z,69.60
2018-09-11T14:38:36.415Z,69.40
2018-09-11T14:41:04.592Z,69.10
2018-09-11T14:43:32.782Z,69.00
2018-09-11T14:46:00.973Z,69.80
2018-09-11T14:48:30.154Z,69.40
2018-09-11T14:50:58.342Z,70.50
2018-09-11T14:53:26.512Z,69.20
2018-09-11T14:55:54.709Z,68.30
2018-09-11T14:58:22.913Z,69.40
2018-09-11T15:00:51.337Z,68.60
2018-09-11T15:03:19.511Z,68.50
2018-09-11T15:05:47.749Z,66.40
2018-09-11T15:08:15.942Z,66.10
2018-09-11T15:10:44.155Z,66.00
2018-09-11T15:13:12.351Z,67.20
2018-09-11T15:15:40.541Z,67.00
2018-09-11T15:18:08.679Z,67.20
2018-09-11T15:20:36.871Z,67.20
2018-09-11T15:23:05.048Z,66.50
2018-09-11T15:25:33.282Z,68.00
2018-09-11T15:28:01.458Z,68.60
2018-09-11T15:30:29.686Z,67.10
2018-09-11T15:32:57.936Z,66.40
2018-09-11T15:35:26.240Z,66.00
2018-09-11T15:37:54.423Z,66.20
2018-09-11T15:40:22.601Z,66.60
2018-09-11T15:42:50.796Z,66.60
2018-09-11T15:45:18.979Z,65.70
2018-09-11T15:47:47.142Z,63.70
2018-09-11T15:50:15.338Z,64.70
2018-09-11T15:52:43.529Z,64.40
2018-09-11T15:55:11.018Z,63.80
2018-09-11T15:57:38.511Z,63.60
2018-09-11T16:00:06.063Z,61.60
2018-09-11T16:02:33.581Z,61.70
2018-09-11T16:05:01.104Z,61.80
2018-09-11T16:07:28.594Z,59.70
2018-09-11T16:09:56.095Z,60.30
2018-09-11T16:12:23.632Z,61.00
2018-09-11T16:14:51.798Z,61.70
2018-09-11T16:17:19.997Z,61.20
2018-09-11T16:19:48.250Z,61.20
2018-09-11T16:22:16.426Z,61.40
2018-09-11T16:24:44.613Z,62.30
2018-09-11T16:27:12.789Z,63.10
2018-09-11T16:29:41.270Z,64.10
2018-09-11T16:32:09.430Z,65.40
2018-09-11T16:34:37.607Z,66.40
2018-09-11T16:37:05.767Z,67.00
2018-09-11T16:39:33.954Z,67.70
2018-09-11T16:42:02.143Z,66.80
2018-09-11T16:44:30.350Z,67.50
2018-09-11T16:46:58.527Z,68.00
2018-09-11T16:49:26.722Z,67.50
2018-09-11T16:51:54.914Z,68.60
2018-09-11T16:54:23.420Z,68.70
2018-09-11T16:56:51.647Z,69.50
2018-09-11T16:59:19.859Z,69.70
2018-09-11T17:01:48.089Z,70.60
2018-09-11T17:04:16.262Z,71.20
2018-09-11T17:06:44.444Z,72.00
2018-09-11T17:09:12.639Z,72.70
2018-09-11T17:11:40.838Z,72.70
2018-09-11T17:14:10.256Z,73.00
2018-09-11T17:16:38.461Z,73.20
2018-09-11T17:19:06.719Z,73.40
2018-09-11T17:21:34.887Z,73.70
2018-09-11T17:24:03.082Z,73.70
2018-09-11T17:26:31.278Z,74.00
2018-09-11T17:28:59.447Z,74.50
2018-09-11T17:31:27.654Z,74.60
2018-09-11T17:33:55.838Z,74.90
2018-09-11T17:36:24.007Z,75.40
2018-09-11T17:38:52.191Z,75.30
2018-09-11T17:41:20.364Z,75.90
2018-09-11T17:43:48.577Z,75.90
2018-09-11T17:46:16.722Z,76.50
2018-09-11T17:48:44.902Z,76.60
2018-09-11T17:51:13.067Z,77.40
2018-09-11T17:53:41.254Z,77.90
2018-09-11T17:56:09.444Z,79.60
2018-09-11T17:58:37.665Z,78.80
2018-09-11T18:01:05.871Z,78.80
2018-09-11T18:03:34.060Z,78.30
2018-09-11T18:06:02.287Z,78.80
2018-09-11T18:08:30.481Z,78.90
2018-09-11T18:10:58.681Z,80.10
2018-09-11T18:16:17.509Z,80.40
2018-09-11T18:18:45.729Z,82.80
2018-09-11T18:21:14.132Z,81.10
2018-09-11T18:23:42.367Z,80.90
2018-09-11T18:26:10.730Z,80.70
2018-09-11T18:28:38.984Z,82.00
2018-09-11T18:31:07.243Z,82.30
2018-09-11T18:33:35.491Z,82.30
2018-09-11T18:36:03.718Z,83.50
2018-09-11T18:38:32.015Z,82.60
2018-09-11T18:41:00.230Z,84.00
2018-09-11T18:43:28.433Z,83.80
2018-09-11T18:45:56.698Z,84.40
2018-09-11T18:48:25.081Z,84.10
2018-09-11T18:50:53.430Z,85.40
2018-09-11T18:53:21.665Z,85.60
2018-09-11T18:55:49.905Z,85.90
2018-09-11T18:58:18.140Z,86.60
2018-09-11T19:00:46.369Z,87.20
2018-09-11T19:03:14.621Z,87.50
2018-09-11T19:05:42.936Z,88.10
2018-09-11T19:08:11.119Z,87.90
2018-09-11T19:10:39.338Z,87.40
2018-09-11T19:13:07.545Z,88.20
2018-09-11T19:15:35.785Z,87.30
2018-09-11T19:18:04.000Z,88.00
2018-09-11T19:20:32.172Z,88.40
2018-09-11T19:23:00.346Z,86.40
2018-09-11T19:25:28.638Z,87.60
2018-09-11T19:27:56.914Z,88.00
2018-09-11T19:30:25.154Z,89.20
2018-09-11T19:32:53.347Z,88.50
2018-09-11T19:35:21.577Z,88.40
2018-09-11T19:37:49.839Z,89.10
2018-09-11T19:40:18.063Z,89.40
2018-09-11T19:42:46.300Z,89.70
2018-09-11T19:45:14.527Z,89.60
2018-09-11T19:47:42.771Z,90.20
2018-09-11T19:50:11.127Z,90.20
2018-09-11T19:52:39.308Z,90.50
2018-09-11T19:55:07.500Z,90.70
2018-09-11T19:57:36.577Z,91.10
2018-09-11T20:00:05.120Z,91.30
2018-09-11T20:02:33.361Z,91.00
2018-09-11T20:05:01.745Z,91.50
2018-09-11T20:07:29.945Z,91.40
2018-09-11T20:09:58.581Z,91.50
2018-09-11T20:12:26.757Z,91.80
2018-09-11T20:14:54.967Z,92.40
2018-09-11T20:17:23.166Z,92.10
2018-09-11T20:19:51.431Z,92.30
2018-09-11T20:22:19.635Z,92.40
2018-09-11T20:24:47.861Z,92.80
2018-09-11T20:27:16.572Z,92.90
2018-09-11T20:29:44.791Z,93.20
2018-09-11T20:32:13.046Z,93.50
2018-09-11T20:34:41.292Z,93.70
2018-09-11T20:37:09.455Z,93.90
2018-09-11T20:39:37.632Z,94.10
2018-09-11T20:42:05.803Z,94.30
2018-09-11T20:44:34.034Z,94.50
2018-09-11T20:47:02.226Z,94.80
2018-09-11T20:49:30.400Z,94.90
2018-09-11T20:51:58.612Z,95.00
2018-09-11T20:54:26.815Z,95.20
2018-09-11T20:56:55.001Z,95.80
2018-09-11T20:59:23.179Z,95.60
2018-09-11T21:01:51.397Z,95.50
2018-09-11T21:04:19.638Z,95.70
2018-09-11T21:06:47.823Z,95.80
2018-09-11T21:09:16.011Z,95.80
2018-09-11T21:11:44.270Z,95.60
2018-09-11T21:14:12.532Z,95.80
2018-09-11T21:16:40.715Z,95.80
2018-09-11T21:19:08.937Z,96.10
2018-09-11T21:21:37.126Z,96.00
2018-09-11T21:24:06.161Z,96.40
2018-09-11T21:26:34.356Z,96.30
2018-09-11T21:29:02.568Z,96.30
2018-09-11T21:31:30.767Z,96.50
2018-09-11T21:33:59.040Z,96.60
2018-09-11T21:36:27.256Z,96.80
2018-09-11T21:38:55.443Z,97.00
2018-09-11T21:41:23.638Z,97.00
2018-09-11T21:43:51.928Z,97.20
2018-09-11T21:46:20.185Z,97.40
2018-09-11T21:48:48.359Z,97.60
2018-09-11T21:51:17.255Z,97.80
2018-09-11T21:53:45.474Z,97.90
2018-09-11T21:56:13.697Z,97.90
2018-09-11T21:58:41.871Z,98.10
2018-09-11T22:01:15.385Z,98.80
2018-09-11T22:03:43.661Z,98.60
2018-09-11T22:06:11.898Z,98.80
2018-09-11T22:08:40.146Z,98.90
2018-09-11T22:11:08.385Z,99.00
2018-09-11T22:13:36.569Z,99.40
2018-09-11T22:16:04.746Z,99.60
2018-09-11T22:18:32.933Z,99.80
2018-09-11T22:21:01.161Z,99.90
2018-09-11T22:23:29.319Z,99.90
2018-09-11T22:25:57.536Z,99.90
2018-09-11T22:28:25.883Z,99.90
2018-09-11T22:30:54.083Z,99.90
2018-09-11T22:33:22.312Z,99.90
2018-09-11T22:35:50.491Z,99.90
2018-09-11T22:38:18.692Z,99.90
2018-09-11T22:40:47.402Z,99.90
2018-09-11T22:43:15.923Z,99.90
2018-09-11T22:45:44.059Z,99.90
2018-09-11T22:48:12.291Z,99.90
2018-09-11T22:50:40.482Z,99.90
2018-09-11T22:53:08.701Z,99.90
2018-09-11T22:55:36.907Z,99.90
2018-09-11T22:58:05.140Z,99.90
2018-09-11T23:00:33.361Z,99.90
2018-09-11T23:03:01.523Z,99.90
2018-09-11T23:05:29.714Z,99.90
2018-09-11T23:07:57.898Z,99.90
2018-09-11T23:10:26.098Z,99.90
2018-09-11T23:12:54.347Z,99.90
2018-09-11T23:15:22.539Z,99.90
2018-09-11T23:17:50.751Z,99.90
2018-09-11T23:20:19.030Z,99.90
2018-09-11T23:22:47.211Z,99.90
2018-09-11T23:25:15.651Z,99.90
2018-09-11T23:27:44.355Z,99.90
2018-09-11T23:30:12.616Z,99.90
2018-09-11T23:32:40.949Z,99.90
2018-09-11T23:35:09.151Z,99.90
2018-09-11T23:37:37.346Z,99.90
2018-09-11T23:40:05.956Z,99.90
2018-09-11T23:42:34.138Z,99.90
2018-09-11T23:45:02.358Z,99.90
2018-09-11T23:47:30.548Z,99.90
2018-09-11T23:49:58.750Z,99.90
2018-09-11T23:52:26.966Z,99.90
2018-09-11T23:54:55.171Z,99.90
2018-09-11T23:57:23.386Z,99.90
2018-09-11T23:59:51.600Z,99.90
